Mount Erie, IL (62446)

7:43 AM CDT on September 30, 2014 (GMT -0500)
Fairfield Municipal | Change Station
CLOSE
Current Station
Airport
Location: Fairfield,
Elevation: 436 ft
Nearby Weather Stations
Active Advisory: Special Statement

Elev 436 ft 38.38 °N, 88.41 °W | Updated 8 minutes ago

Clear
Clear
55 °F
Feels Like 55 °F
N
0
Wind Variable Wind from North

Today
High -- | Low -- °F
--% Chance of Precip.
Yesterday
High -- | Low -- °F
Precip. -- in
6:48 AM 6:38 PM
Waxing Crescent, 36% visible
Pressure 29.96 in
Visibility 5.0 miles
Clouds Clear
Dew Point 54 °F
Humidity 94%
Rainfall 0.00 in
Snow Depth Not available.
UV 0 out of 12
Pollen 4.60 out of 12
Air Quality Not available.
Flu Activity Not available.
METAR KFWC 301235Z AUTO 00000KT 5SM BR CLR 13/12 A2996 RMK AO2

More Conditions Fewer Conditions

Pressure 29.96 in
Visibility 5.0 miles
Clouds Clear
Dew Point 54 °F
Humidity 94%
Rainfall 0.00 in
Snow Depth Not available.
UV 0 out of 12
Pollen 4.60 out of 12
Air Quality Not available.
Flu Activity Not available.
METAR KFWC 301235Z AUTO 00000KT 5SM BR CLR 13/12 A2996 RMK AO2

More Conditions Fewer Conditions

10-Day Weather Forecast

Almanac

Astronomy

Sep. 30, 2014 Rise Set
Actual Time 6:48 AM CDT 6:38 PM CDT
Civil Twilight 6:22 AM CDT 7:04 PM CDT
Nautical Twilight 5:51 AM CDT 7:35 PM CDT
Astronomical Twilight 5:20 AM CDT 8:05 PM CDT
Moon 12:52 PM CDT 11:11 PM CDT
Length of Visible Light 12h 42m
Length of Day
11h 49m
Tomorrow will be 2m 27s shorter.
Waxing Crescent, 36% of the Moon is Illuminated
Today
Waxing Crescent
Oct 1
First Quarter
Oct 8
Full
Oct 15
Last Quarter
Oct 23
New

Today's Extremes

State Highs State Lows

Community

WunderPhotos

Upload Photos

1,757,625 photos uploaded!

Nearby

Snow Depth

Station Depth Elevation
No new snow has been reported.

Earthquake Activity

City Distance Mag. Time & Date
No recent earthquake activity has been reported nearby.
Minimum magnitude displayed is 2.5.

Coastal Water Temperatures

Place Temperature
No Stations Reporting

Nearby Weather Stations